createdAt,value
2018-03-22T00:00:09.584Z,26.70
2018-03-22T00:01:09.561Z,24.50
2018-03-22T00:02:09.537Z,26.60
2018-03-22T00:03:09.516Z,28.40
2018-03-22T00:04:09.492Z,26.00
2018-03-22T00:05:09.477Z,26.00
2018-03-22T00:06:09.447Z,24.20
2018-03-22T00:07:09.429Z,26.80
2018-03-22T00:08:09.401Z,24.80
2018-03-22T00:09:09.376Z,28.40
2018-03-22T00:10:09.356Z,25.50
2018-03-22T00:11:09.333Z,25.60
2018-03-22T00:12:09.310Z,24.50
2018-03-22T00:13:09.285Z,26.60
2018-03-22T00:14:09.265Z,28.30
2018-03-22T00:15:09.245Z,26.50
2018-03-22T00:16:09.220Z,25.70
2018-03-22T00:17:09.194Z,26.20
2018-03-22T00:18:09.172Z,25.10
2018-03-22T00:19:09.149Z,26.80
2018-03-22T00:20:09.126Z,26.90
2018-03-22T00:21:09.107Z,26.70
2018-03-22T00:22:09.087Z,26.00
2018-03-22T00:23:09.057Z,26.30
2018-03-22T00:24:09.034Z,26.70
2018-03-22T00:25:09.010Z,27.00
2018-03-22T00:26:08.986Z,26.80
2018-03-22T00:27:08.965Z,25.70
2018-03-22T00:28:08.943Z,26.20
2018-03-22T00:29:08.917Z,25.30
2018-03-22T00:30:08.896Z,27.10
2018-03-22T00:31:08.872Z,26.10
2018-03-22T00:32:08.846Z,25.90
2018-03-22T00:33:08.824Z,26.70
2018-03-22T00:34:08.804Z,25.40
2018-03-22T00:35:08.782Z,28.10
2018-03-22T00:36:08.761Z,25.90
2018-03-22T00:37:08.732Z,25.80
2018-03-22T00:38:08.709Z,27.10
2018-03-22T00:39:08.687Z,27.70
2018-03-22T00:40:08.665Z,26.90
2018-03-22T00:41:08.641Z,26.10
2018-03-22T00:42:08.617Z,30.10
2018-03-22T00:43:08.594Z,26.50
2018-03-22T00:44:08.570Z,25.70
2018-03-22T00:45:08.554Z,27.00
2018-03-22T00:46:08.527Z,26.10
2018-03-22T00:47:08.507Z,26.80
2018-03-22T00:48:08.483Z,25.60
2018-03-22T00:49:08.459Z,25.40
2018-03-22T00:50:08.438Z,26.50
2018-03-22T00:51:08.415Z,28.20
2018-03-22T00:52:08.391Z,25.20
2018-03-22T00:53:08.364Z,25.40
2018-03-22T00:54:08.341Z,29.40
2018-03-22T00:55:08.325Z,27.90
2018-03-22T00:56:08.296Z,26.10
2018-03-22T00:57:08.272Z,26.90
2018-03-22T00:58:08.251Z,25.20
2018-03-22T00:59:08.228Z,26.20
2018-03-22T01:00:08.203Z,25.90
2018-03-22T01:01:08.187Z,25.40
2018-03-22T01:02:08.174Z,25.20
2018-03-22T01:03:08.135Z,25.70
2018-03-22T01:04:08.114Z,25.80
2018-03-22T01:05:08.092Z,26.10
2018-03-22T01:06:08.063Z,27.10
2018-03-22T01:07:08.042Z,26.40
2018-03-22T01:08:08.017Z,27.20
2018-03-22T01:09:07.996Z,26.30
2018-03-22T01:10:07.981Z,27.20
2018-03-22T01:11:07.947Z,26.80
2018-03-22T01:12:07.928Z,27.20
2018-03-22T01:13:07.910Z,27.80
2018-03-22T01:14:07.880Z,25.60
2018-03-22T01:15:07.855Z,26.80
2018-03-22T01:16:07.835Z,29.20
2018-03-22T01:17:07.810Z,29.40
2018-03-22T01:18:07.786Z,27.60
2018-03-22T01:19:07.763Z,29.40
2018-03-22T01:20:07.748Z,28.50
2018-03-22T01:21:07.713Z,28.60
2018-03-22T01:22:07.696Z,28.20
2018-03-22T01:23:07.670Z,29.70
2018-03-22T01:24:07.646Z,29.30
2018-03-22T01:25:07.624Z,29.20
2018-03-22T01:26:07.598Z,28.80
2018-03-22T01:27:07.574Z,28.00
2018-03-22T01:28:07.558Z,29.60
2018-03-22T01:29:07.532Z,29.00
2018-03-22T01:30:07.506Z,28.10
2018-03-22T01:31:07.485Z,30.00
2018-03-22T01:32:07.460Z,29.10
2018-03-22T01:33:07.436Z,29.90
2018-03-22T01:34:07.413Z,29.60
2018-03-22T01:35:07.400Z,29.80
2018-03-22T01:36:07.368Z,29.80
2018-03-22T01:37:07.343Z,29.50
2018-03-22T01:38:07.328Z,30.00
2018-03-22T01:39:07.296Z,33.10
2018-03-22T01:40:07.277Z,29.70
2018-03-22T01:41:07.256Z,30.60
2018-03-22T01:42:07.230Z,30.90
2018-03-22T01:43:07.207Z,33.00
2018-03-22T01:44:07.183Z,31.20
2018-03-22T01:45:07.160Z,32.70
2018-03-22T01:46:07.139Z,31.80
2018-03-22T01:47:07.111Z,31.50
2018-03-22T01:48:07.101Z,33.40
2018-03-22T01:49:07.066Z,31.20
2018-03-22T01:50:07.043Z,32.50
2018-03-22T01:51:07.021Z,32.50
2018-03-22T01:52:06.996Z,31.70
2018-03-22T01:53:06.973Z,32.30
2018-03-22T01:54:06.950Z,32.70
2018-03-22T01:55:06.930Z,33.20
2018-03-22T01:56:06.904Z,31.90
2018-03-22T01:57:06.882Z,31.10
2018-03-22T01:58:06.858Z,36.00
2018-03-22T01:59:06.836Z,32.20
2018-03-22T02:00:06.816Z,31.80
2018-03-22T02:01:06.794Z,33.00
2018-03-22T02:02:06.769Z,31.40
2018-03-22T02:03:06.748Z,31.40
2018-03-22T02:04:06.717Z,32.20
2018-03-22T02:05:06.696Z,32.50
2018-03-22T02:06:06.676Z,29.30
2018-03-22T02:07:06.651Z,33.60
2018-03-22T02:08:06.628Z,30.90
2018-03-22T02:09:06.604Z,32.50
2018-03-22T02:10:06.600Z,32.30
2018-03-22T02:11:06.562Z,30.90
2018-03-22T02:12:06.541Z,31.90
2018-03-22T02:13:06.517Z,32.50
2018-03-22T02:14:06.490Z,33.10
2018-03-22T02:15:06.466Z,31.00
2018-03-22T02:16:06.447Z,30.70
2018-03-22T02:17:06.429Z,32.00
2018-03-22T02:18:06.405Z,34.70
2018-03-22T02:19:06.378Z,35.30
2018-03-22T02:20:06.354Z,31.20
2018-03-22T02:21:06.327Z,32.90
2018-03-22T02:22:06.303Z,32.20
2018-03-22T02:23:06.285Z,31.30
2018-03-22T02:24:06.263Z,32.30
2018-03-22T02:25:06.236Z,32.30
2018-03-22T02:26:06.212Z,31.40
2018-03-22T02:27:06.191Z,32.70
2018-03-22T02:28:06.166Z,31.10
2018-03-22T02:29:06.144Z,32.30
2018-03-22T02:30:06.122Z,32.20
2018-03-22T02:31:06.100Z,30.30
2018-03-22T02:32:06.078Z,30.40
2018-03-22T02:33:06.058Z,31.20
2018-03-22T02:34:06.033Z,30.30
2018-03-22T02:35:06.009Z,30.80
2018-03-22T02:36:05.985Z,30.90
2018-03-22T02:37:05.963Z,30.30
2018-03-22T02:38:05.943Z,31.70
2018-03-22T02:39:05.921Z,30.90
2018-03-22T02:40:05.891Z,31.50
2018-03-22T02:41:05.866Z,29.90
2018-03-22T02:42:05.852Z,30.30
2018-03-22T02:43:05.821Z,30.70
2018-03-22T02:44:05.805Z,31.90
2018-03-22T02:45:05.776Z,31.20
2018-03-22T02:46:05.757Z,31.70
2018-03-22T02:47:05.733Z,31.00
2018-03-22T02:48:05.708Z,30.50
2018-03-22T02:49:05.685Z,32.00
2018-03-22T02:50:05.664Z,31.50
2018-03-22T02:51:05.651Z,31.20
2018-03-22T02:52:05.618Z,31.50
2018-03-22T02:53:05.596Z,31.70
2018-03-22T02:54:05.573Z,31.80
2018-03-22T02:55:05.549Z,32.40
2018-03-22T02:56:05.521Z,31.70
2018-03-22T02:57:05.503Z,31.70
2018-03-22T02:58:05.481Z,32.30
2018-03-22T02:59:05.456Z,32.20
2018-03-22T03:00:05.430Z,33.80
2018-03-22T03:01:05.409Z,32.60
2018-03-22T03:02:05.389Z,33.20
2018-03-22T03:03:05.366Z,32.60
2018-03-22T03:04:05.335Z,33.30
2018-03-22T03:05:05.316Z,31.80
2018-03-22T03:06:05.306Z,35.10
2018-03-22T03:07:05.280Z,31.70
2018-03-22T03:08:05.248Z,32.90
2018-03-22T03:09:05.225Z,33.10
2018-03-22T03:10:05.202Z,33.00
2018-03-22T03:11:05.177Z,31.30
2018-03-22T03:12:05.153Z,33.40
2018-03-22T03:13:05.128Z,33.80
2018-03-22T03:14:05.106Z,32.20
2018-03-22T03:15:05.083Z,32.40
2018-03-22T03:16:05.065Z,32.60
2018-03-22T03:17:05.040Z,32.40
2018-03-22T03:18:05.015Z,34.20
2018-03-22T03:19:04.994Z,32.10
2018-03-22T03:20:04.970Z,33.50
2018-03-22T03:21:04.955Z,32.40
2018-03-22T03:22:04.922Z,35.70
2018-03-22T03:23:04.898Z,33.00
2018-03-22T03:24:04.879Z,33.60
2018-03-22T03:25:04.855Z,33.00
2018-03-22T03:26:04.836Z,33.90
2018-03-22T03:27:04.810Z,33.60
2018-03-22T03:28:04.786Z,32.90
2018-03-22T03:29:04.764Z,34.70
2018-03-22T03:30:04.740Z,34.40
2018-03-22T03:31:04.717Z,34.20
2018-03-22T03:32:04.694Z,33.00
2018-03-22T03:33:04.673Z,33.70
2018-03-22T03:34:04.646Z,35.80
2018-03-22T03:35:04.625Z,34.30
2018-03-22T03:36:04.601Z,35.30
2018-03-22T03:37:04.579Z,33.20
2018-03-22T03:38:04.557Z,34.40
2018-03-22T03:39:04.534Z,34.10
2018-03-22T03:40:04.506Z,33.80
2018-03-22T03:41:04.486Z,33.90
2018-03-22T03:42:04.463Z,34.90
2018-03-22T03:43:04.448Z,35.10
2018-03-22T03:44:04.422Z,34.10
2018-03-22T03:45:04.393Z,33.90
2018-03-22T03:46:04.377Z,34.60
2018-03-22T03:47:04.346Z,35.30
2018-03-22T03:48:04.324Z,35.50
2018-03-22T03:49:04.302Z,37.20
2018-03-22T03:50:04.277Z,36.30
2018-03-22T03:51:04.259Z,35.80
2018-03-22T03:52:04.233Z,36.80
2018-03-22T03:53:04.215Z,37.60
2018-03-22T03:54:04.188Z,37.40
2018-03-22T03:55:04.162Z,36.20
2018-03-22T03:56:04.137Z,38.00
2018-03-22T03:57:04.115Z,39.00
2018-03-22T03:58:04.094Z,38.00
2018-03-22T03:59:04.080Z,39.10
2018-03-22T04:00:04.045Z,38.00
2018-03-22T04:01:04.025Z,38.30
2018-03-22T04:02:04.000Z,41.30
2018-03-22T04:03:03.976Z,38.70
2018-03-22T04:04:03.960Z,40.00
2018-03-22T04:05:03.933Z,38.70
2018-03-22T04:06:03.909Z,38.90
2018-03-22T04:07:03.883Z,40.70
2018-03-22T04:08:03.862Z,39.20
2018-03-22T04:09:03.844Z,40.30
2018-03-22T04:10:03.816Z,40.30
2018-03-22T04:11:03.800Z,39.90
2018-03-22T04:12:03.775Z,41.80
2018-03-22T04:13:03.746Z,41.00
2018-03-22T04:14:03.726Z,41.30
2018-03-22T04:15:03.703Z,41.20
2018-03-22T04:16:03.678Z,40.70
2018-03-22T04:17:03.655Z,40.30
2018-03-22T04:18:03.631Z,41.60
2018-03-22T04:19:03.609Z,41.90
2018-03-22T04:20:03.590Z,41.40
2018-03-22T04:21:03.567Z,41.30
2018-03-22T04:22:03.540Z,40.90
2018-03-22T04:23:03.516Z,41.40
2018-03-22T04:24:03.498Z,40.40
2018-03-22T04:25:03.472Z,39.40
2018-03-22T04:26:03.447Z,42.90
2018-03-22T04:27:03.425Z,41.90
2018-03-22T04:28:03.400Z,41.50
2018-03-22T04:29:03.375Z,41.90
2018-03-22T04:30:03.354Z,41.10
2018-03-22T04:31:03.332Z,40.10
2018-03-22T04:32:03.306Z,42.30
2018-03-22T04:33:03.281Z,41.80
2018-03-22T04:34:03.262Z,44.90
2018-03-22T04:35:03.235Z,44.10
2018-03-22T04:36:03.218Z,42.40
2018-03-22T04:37:03.196Z,44.00
2018-03-22T04:38:03.168Z,42.70
2018-03-22T04:39:03.149Z,43.80
2018-03-22T04:40:03.123Z,44.20
2018-03-22T04:41:03.095Z,43.30
2018-03-22T04:42:03.073Z,43.70
2018-03-22T04:43:03.052Z,44.00
2018-03-22T04:44:03.030Z,43.20
2018-03-22T04:45:03.005Z,47.70
2018-03-22T04:46:02.981Z,46.30
2018-03-22T04:47:02.957Z,45.40
2018-03-22T04:48:02.932Z,48.60
2018-03-22T04:49:02.912Z,47.80
2018-03-22T04:50:02.886Z,47.50
2018-03-22T04:51:02.866Z,48.20
2018-03-22T04:52:02.845Z,48.40
2018-03-22T04:53:02.816Z,47.70
2018-03-22T04:54:02.796Z,49.50
2018-03-22T04:55:02.775Z,48.60
2018-03-22T04:56:02.746Z,51.50
2018-03-22T04:57:02.726Z,53.70
2018-03-22T04:58:02.703Z,50.90
2018-03-22T04:59:02.687Z,50.30
2018-03-22T05:00:02.662Z,53.40
2018-03-22T05:01:02.631Z,52.60
2018-03-22T05:02:02.618Z,54.60
2018-03-22T05:03:02.586Z,54.20
2018-03-22T05:04:02.560Z,52.60
2018-03-22T05:05:02.545Z,57.40
2018-03-22T05:06:02.514Z,53.80
2018-03-22T05:07:02.495Z,56.50
2018-03-22T05:08:02.476Z,57.80
2018-03-22T05:09:02.445Z,54.50
2018-03-22T05:10:02.422Z,55.10
2018-03-22T05:11:02.401Z,57.90
2018-03-22T05:12:02.376Z,56.30
2018-03-22T05:13:02.355Z,55.30
2018-03-22T05:14:02.333Z,56.30
2018-03-22T05:15:02.306Z,57.30
2018-03-22T05:16:02.282Z,59.70
2018-03-22T05:17:02.263Z,56.80
2018-03-22T05:18:02.234Z,56.40
2018-03-22T05:19:02.213Z,55.70
2018-03-22T05:20:02.194Z,58.30
2018-03-22T05:21:02.164Z,56.50
2018-03-22T05:22:02.149Z,56.20
2018-03-22T05:23:02.118Z,58.20
2018-03-22T05:24:02.100Z,58.90
2018-03-22T05:25:02.131Z,62.90
2018-03-22T05:26:02.051Z,59.80
2018-03-22T05:27:02.025Z,58.30
2018-03-22T05:28:02.004Z,59.30
2018-03-22T05:29:01.987Z,56.30
2018-03-22T05:30:01.961Z,56.10
2018-03-22T05:31:01.935Z,58.60
2018-03-22T05:32:01.920Z,56.70
2018-03-22T05:33:01.887Z,57.30
2018-03-22T05:34:01.869Z,54.70
2018-03-22T05:35:01.845Z,51.60
2018-03-22T05:36:01.816Z,55.00
2018-03-22T05:37:01.796Z,57.10
2018-03-22T05:38:01.792Z,56.40
2018-03-22T05:39:01.749Z,57.10
2018-03-22T05:40:01.731Z,57.80
2018-03-22T05:41:01.699Z,54.00
2018-03-22T05:42:01.675Z,58.70
2018-03-22T05:43:01.660Z,57.90
2018-03-22T05:44:01.632Z,58.90
2018-03-22T05:45:01.605Z,58.40
2018-03-22T05:46:01.584Z,58.70
2018-03-22T05:47:01.559Z,60.10
2018-03-22T05:48:01.538Z,56.40
2018-03-22T05:49:01.523Z,60.90
2018-03-22T05:50:01.491Z,59.10
2018-03-22T05:51:01.469Z,59.30
2018-03-22T05:52:01.441Z,61.20
2018-03-22T05:53:01.428Z,58.30
2018-03-22T05:54:01.402Z,59.40
2018-03-22T05:55:01.372Z,61.30
2018-03-22T05:56:01.355Z,60.30
2018-03-22T05:57:01.333Z,57.80
2018-03-22T05:58:01.309Z,56.00
2018-03-22T05:59:01.283Z,59.80
2018-03-22T06:00:01.269Z,59.60
2018-03-22T06:01:01.236Z,64.30
2018-03-22T06:02:01.211Z,60.90
2018-03-22T06:03:01.189Z,64.40
2018-03-22T06:04:01.166Z,61.10
2018-03-22T06:05:01.141Z,58.30
2018-03-22T06:06:01.116Z,59.40
2018-03-22T06:07:01.097Z,61.60
2018-03-22T06:08:01.077Z,60.60
2018-03-22T06:09:01.045Z,61.60
2018-03-22T06:10:01.031Z,62.10
2018-03-22T06:11:01.013Z,61.20
2018-03-22T06:12:00.977Z,65.10
2018-03-22T06:13:00.956Z,64.90
2018-03-22T06:14:00.932Z,62.10
2018-03-22T06:15:00.908Z,68.40
2018-03-22T06:16:00.901Z,65.40
2018-03-22T06:17:00.863Z,65.60
2018-03-22T06:18:00.839Z,66.00
2018-03-22T06:19:00.814Z,64.30
2018-03-22T06:20:00.795Z,66.30
2018-03-22T06:21:00.773Z,63.60
2018-03-22T06:22:00.745Z,67.10
2018-03-22T06:23:00.720Z,65.20
2018-03-22T06:24:00.695Z,65.70
2018-03-22T06:25:00.676Z,66.80
2018-03-22T06:26:00.652Z,66.60
2018-03-22T06:27:00.636Z,70.10
2018-03-22T06:28:00.606Z,68.00
2018-03-22T06:29:00.586Z,67.40
2018-03-22T06:30:00.562Z,67.80
2018-03-22T06:31:00.536Z,68.80
2018-03-22T06:32:00.512Z,68.50
2018-03-22T06:33:00.500Z,70.30
2018-03-22T06:34:00.465Z,70.00
2018-03-22T06:35:00.441Z,71.80
2018-03-22T06:36:00.419Z,75.70
2018-03-22T06:37:00.395Z,75.10
2018-03-22T06:38:00.375Z,78.00
2018-03-22T06:39:00.347Z,76.30
2018-03-22T06:40:00.325Z,76.20
2018-03-22T06:41:00.299Z,72.10
2018-03-22T06:42:00.279Z,78.10
2018-03-22T06:43:00.259Z,72.20
2018-03-22T06:44:00.229Z,75.90
2018-03-22T06:45:00.209Z,73.80
2018-03-22T06:46:00.187Z,77.50
2018-03-22T06:47:00.169Z,75.30
2018-03-22T06:48:00.147Z,78.30
2018-03-22T06:49:00.115Z,76.20
2018-03-22T06:50:00.096Z,71.00
2018-03-22T06:51:00.066Z,74.00
2018-03-22T06:52:00.051Z,76.60
2018-03-22T06:53:00.077Z,78.60
2018-03-22T06:53:59.995Z,75.60
2018-03-22T06:54:59.975Z,67.30
2018-03-22T06:55:59.949Z,79.20
2018-03-22T06:56:59.957Z,74.80
2018-03-22T06:57:59.900Z,71.50
2018-03-22T06:58:59.878Z,71.60
2018-03-22T06:59:59.855Z,71.10
2018-03-22T07:00:59.832Z,73.60
2018-03-22T07:01:59.808Z,73.40
2018-03-22T07:02:59.793Z,74.70
2018-03-22T07:03:59.766Z,72.00
2018-03-22T07:04:59.744Z,71.70
2018-03-22T07:05:59.726Z,73.90
2018-03-22T07:06:59.708Z,72.60
2018-03-22T07:07:59.677Z,76.90
2018-03-22T07:08:59.649Z,73.60
2018-03-22T07:09:59.625Z,77.30
2018-03-22T07:10:59.606Z,71.70
2018-03-22T07:11:59.578Z,75.00
2018-03-22T07:12:59.554Z,75.00
2018-03-22T07:13:59.533Z,71.00
2018-03-22T07:14:59.507Z,69.80
2018-03-22T07:15:59.483Z,69.60
2018-03-22T07:16:59.458Z,74.00
2018-03-22T07:17:59.436Z,69.90
2018-03-22T07:18:59.416Z,66.90
2018-03-22T07:19:59.398Z,69.70
2018-03-22T07:20:59.365Z,75.60
2018-03-22T07:21:59.345Z,68.00
2018-03-22T07:22:59.329Z,68.90
2018-03-22T07:23:59.297Z,65.50
2018-03-22T07:24:59.275Z,65.30
2018-03-22T07:25:59.302Z,66.10
2018-03-22T07:26:59.226Z,68.10
2018-03-22T07:27:59.207Z,68.00
2018-03-22T07:28:59.183Z,68.30
2018-03-22T07:29:59.157Z,66.20
2018-03-22T07:30:59.133Z,66.10
2018-03-22T07:31:59.108Z,64.20
2018-03-22T07:32:59.086Z,66.70
2018-03-22T07:33:59.065Z,66.00
2018-03-22T07:34:59.052Z,67.30
2018-03-22T07:35:59.015Z,67.10
2018-03-22T07:36:58.997Z,67.30
2018-03-22T07:37:58.975Z,67.30
2018-03-22T07:38:58.949Z,67.10
2018-03-22T07:39:58.926Z,64.60
2018-03-22T07:40:58.900Z,62.20
2018-03-22T07:41:58.885Z,67.30
2018-03-22T07:42:58.866Z,67.80
2018-03-22T07:43:58.835Z,64.40
2018-03-22T07:44:58.809Z,68.60
2018-03-22T07:45:58.787Z,63.30
2018-03-22T07:46:58.762Z,61.70
2018-03-22T07:47:58.737Z,62.70
2018-03-22T07:48:58.720Z,62.60
2018-03-22T07:49:58.690Z,62.50
2018-03-22T07:50:58.667Z,58.00
2018-03-22T07:51:58.643Z,57.10
2018-03-22T07:52:58.621Z,57.80
2018-03-22T07:53:58.596Z,58.30
2018-03-22T07:54:58.576Z,55.30
2018-03-22T07:55:58.556Z,55.10
2018-03-22T07:56:58.527Z,54.10
2018-03-22T07:57:58.509Z,55.60
2018-03-22T07:58:58.553Z,53.70
2018-03-22T07:59:58.455Z,51.90
2018-03-22T08:00:58.444Z,52.10
2018-03-22T08:01:58.412Z,53.30
2018-03-22T08:02:58.388Z,56.90
2018-03-22T08:03:58.366Z,54.20
2018-03-22T08:04:58.343Z,56.30
2018-03-22T08:05:58.326Z,56.20
2018-03-22T08:06:58.301Z,57.60
2018-03-22T08:07:58.271Z,56.00
2018-03-22T08:08:58.245Z,57.90
2018-03-22T08:09:58.223Z,58.30
2018-03-22T08:10:58.200Z,57.30
2018-03-22T08:11:58.175Z,56.00
2018-03-22T08:12:58.151Z,59.00
2018-03-22T08:13:58.131Z,55.50
2018-03-22T08:14:58.109Z,59.60
2018-03-22T08:15:58.087Z,55.10
2018-03-22T08:16:58.062Z,53.70
2018-03-22T08:17:58.035Z,54.30
2018-03-22T08:18:58.015Z,55.00
2018-03-22T08:19:57.991Z,57.30
2018-03-22T08:20:57.965Z,55.90
2018-03-22T08:21:57.944Z,55.00
2018-03-22T08:22:57.922Z,55.10
2018-03-22T08:23:57.896Z,55.40
2018-03-22T08:24:57.871Z,56.00
2018-03-22T08:25:57.858Z,54.40
2018-03-22T08:26:57.828Z,56.00
2018-03-22T08:27:57.805Z,52.50
2018-03-22T08:28:57.779Z,54.10
2018-03-22T08:29:57.757Z,54.90
2018-03-22T08:30:57.738Z,55.00
2018-03-22T08:31:57.708Z,53.50
2018-03-22T08:32:57.682Z,51.10
2018-03-22T08:33:57.659Z,51.00
2018-03-22T08:34:57.643Z,52.40
2018-03-22T08:35:57.616Z,52.30
2018-03-22T08:36:57.590Z,49.90
2018-03-22T08:37:57.577Z,51.60
2018-03-22T08:38:57.545Z,51.20
2018-03-22T08:39:57.527Z,50.60
2018-03-22T08:40:57.501Z,51.00
2018-03-22T08:41:57.481Z,51.70
2018-03-22T08:42:57.459Z,53.00
2018-03-22T08:43:57.431Z,48.20
2018-03-22T08:44:57.405Z,48.90
2018-03-22T08:45:57.383Z,50.70
2018-03-22T08:46:57.360Z,48.00
2018-03-22T08:47:57.342Z,48.00
2018-03-22T08:48:57.315Z,51.90
2018-03-22T08:49:57.290Z,50.00
2018-03-22T08:50:57.267Z,47.80
2018-03-22T08:51:57.242Z,51.60
2018-03-22T08:52:57.225Z,46.80
2018-03-22T08:53:57.196Z,46.50
2018-03-22T08:54:57.179Z,42.00
2018-03-22T08:55:57.155Z,47.60
2018-03-22T08:56:57.126Z,51.70
2018-03-22T08:57:57.105Z,50.80
2018-03-22T08:58:57.080Z,48.70
2018-03-22T08:59:57.056Z,49.90
2018-03-22T09:00:57.034Z,49.20
2018-03-22T09:01:57.010Z,52.40
2018-03-22T09:02:56.999Z,50.50
2018-03-22T09:03:56.961Z,51.60
2018-03-22T09:04:56.938Z,54.70
2018-03-22T09:05:56.916Z,50.90
2018-03-22T09:06:56.898Z,51.20
2018-03-22T09:07:56.879Z,50.80
2018-03-22T09:08:56.845Z,52.00
2018-03-22T09:09:56.828Z,51.80
2018-03-22T09:10:56.848Z,53.90
2018-03-22T09:11:56.827Z,53.00
2018-03-22T09:12:56.757Z,54.60
2018-03-22T09:13:56.730Z,54.10
2018-03-22T09:14:56.706Z,54.50
2018-03-22T09:15:56.685Z,55.50
2018-03-22T09:16:56.663Z,51.70
2018-03-22T09:17:56.635Z,52.60
2018-03-22T09:18:56.632Z,50.60
2018-03-22T09:19:56.596Z,52.50
2018-03-22T09:20:56.565Z,53.10
2018-03-22T09:21:56.553Z,52.40
2018-03-22T09:22:56.527Z,51.30
2018-03-22T09:23:56.498Z,47.30
2018-03-22T09:24:56.475Z,51.10
2018-03-22T09:25:56.459Z,49.10
2018-03-22T09:26:56.432Z,49.10
2018-03-22T09:27:56.408Z,47.70
2018-03-22T09:28:56.383Z,48.80
2018-03-22T09:29:56.361Z,53.00
2018-03-22T09:30:56.346Z,49.60
2018-03-22T09:31:56.323Z,49.20
2018-03-22T09:32:56.289Z,51.40
2018-03-22T09:33:56.277Z,52.50
2018-03-22T09:34:56.267Z,52.70
2018-03-22T09:35:56.223Z,54.20
2018-03-22T09:36:56.203Z,52.20
2018-03-22T09:37:56.176Z,51.60
2018-03-22T09:38:56.163Z,49.50
2018-03-22T09:39:56.127Z,50.10
2018-03-22T09:40:56.106Z,51.80
2018-03-22T09:41:56.085Z,49.20
2018-03-22T09:42:56.060Z,50.50
2018-03-22T09:43:56.042Z,49.50
2018-03-22T09:44:56.029Z,47.30
2018-03-22T09:45:55.994Z,50.30
2018-03-22T09:46:55.973Z,49.70
2018-03-22T09:47:55.946Z,47.10
2018-03-22T09:48:55.925Z,45.90
2018-03-22T09:49:55.913Z,44.30
2018-03-22T09:50:55.875Z,47.10
2018-03-22T09:51:55.856Z,50.70
2018-03-22T09:52:55.836Z,44.50
2018-03-22T09:53:55.816Z,46.00
2018-03-22T09:54:55.786Z,44.00
2018-03-22T09:55:55.792Z,41.70
2018-03-22T09:56:55.778Z,41.60
2018-03-22T09:57:55.718Z,42.20
2018-03-22T09:58:55.696Z,44.70
2018-03-22T09:59:55.671Z,42.90
2018-03-22T10:00:55.653Z,40.50
2018-03-22T10:01:55.626Z,39.00
2018-03-22T10:02:55.610Z,39.10
2018-03-22T10:03:55.582Z,38.50
2018-03-22T10:04:55.556Z,36.50
2018-03-22T10:05:55.536Z,36.30
2018-03-22T10:06:55.518Z,39.30
2018-03-22T10:07:55.489Z,39.20
2018-03-22T10:08:55.469Z,38.50
2018-03-22T10:09:55.455Z,37.60
2018-03-22T10:10:55.423Z,34.20
2018-03-22T10:11:55.400Z,36.00
2018-03-22T10:12:55.376Z,34.60
2018-03-22T10:13:55.353Z,35.00
2018-03-22T10:14:55.331Z,36.60
2018-03-22T10:15:55.312Z,35.10
2018-03-22T10:16:55.297Z,36.60
2018-03-22T10:17:55.267Z,36.40
2018-03-22T10:18:55.241Z,38.40
2018-03-22T10:19:55.217Z,36.40
2018-03-22T10:20:55.194Z,37.20
2018-03-22T10:21:55.173Z,37.30
2018-03-22T10:22:55.152Z,37.20
2018-03-22T10:23:55.127Z,37.40
2018-03-22T10:24:55.108Z,35.80
2018-03-22T10:25:55.091Z,36.50
2018-03-22T10:26:55.060Z,36.30
2018-03-22T10:27:55.037Z,35.90
2018-03-22T10:28:55.017Z,35.60
2018-03-22T10:29:54.997Z,36.30
2018-03-22T10:30:54.971Z,33.50
2018-03-22T10:31:54.945Z,35.00
2018-03-22T10:32:54.940Z,36.30
2018-03-22T10:33:54.907Z,35.80
2018-03-22T10:34:54.884Z,34.10
2018-03-22T10:35:54.861Z,34.00
2018-03-22T10:36:54.838Z,31.60
2018-03-22T10:37:54.815Z,32.80
2018-03-22T10:38:54.799Z,35.50
2018-03-22T10:39:54.775Z,32.80
2018-03-22T10:40:54.747Z,32.10
2018-03-22T10:41:54.742Z,34.60
2018-03-22T10:42:54.702Z,33.60
2018-03-22T10:43:54.678Z,34.70
2018-03-22T10:44:54.657Z,34.00
2018-03-22T10:45:54.635Z,33.00
2018-03-22T10:46:54.613Z,33.90
2018-03-22T10:47:54.590Z,32.20
2018-03-22T10:48:54.569Z,34.30
2018-03-22T10:49:54.544Z,35.20
2018-03-22T10:50:54.524Z,36.00
2018-03-22T10:51:54.504Z,33.50
2018-03-22T10:52:54.480Z,36.30
2018-03-22T10:53:54.454Z,35.80
2018-03-22T10:54:54.437Z,34.40
2018-03-22T10:55:54.413Z,34.00
2018-03-22T10:56:54.397Z,33.40
2018-03-22T10:57:54.369Z,33.60
2018-03-22T10:58:54.344Z,33.50
2018-03-22T10:59:54.322Z,35.10
2018-03-22T11:00:54.302Z,35.20
2018-03-22T11:01:54.277Z,36.20
2018-03-22T11:02:54.255Z,34.50
2018-03-22T11:03:54.234Z,34.00
2018-03-22T11:04:54.213Z,35.20
2018-03-22T11:05:54.201Z,34.90
2018-03-22T11:06:54.175Z,34.20
2018-03-22T11:07:54.143Z,35.10
2018-03-22T11:08:54.124Z,36.70
2018-03-22T11:09:54.102Z,35.40
2018-03-22T11:10:54.089Z,36.30
2018-03-22T11:11:54.055Z,34.60
2018-03-22T11:12:54.044Z,34.60
2018-03-22T11:13:54.086Z,36.40
2018-03-22T11:14:53.999Z,34.80
2018-03-22T11:15:53.969Z,35.80
2018-03-22T11:16:53.945Z,35.90
2018-03-22T11:17:53.926Z,34.30
2018-03-22T11:18:53.904Z,33.90
2018-03-22T11:19:53.886Z,36.60
2018-03-22T11:20:53.860Z,34.10
2018-03-22T11:21:53.847Z,34.50
2018-03-22T11:22:53.817Z,35.40
2018-03-22T11:23:53.790Z,36.00
2018-03-22T11:24:53.770Z,35.10
2018-03-22T11:25:53.752Z,34.00
2018-03-22T11:26:53.727Z,35.30
2018-03-22T11:27:53.716Z,34.10
2018-03-22T11:28:53.683Z,33.40
2018-03-22T11:29:53.663Z,34.70
2018-03-22T11:30:53.640Z,32.90
2018-03-22T11:31:53.618Z,33.20
2018-03-22T11:32:53.595Z,32.80
2018-03-22T11:33:53.573Z,32.90
2018-03-22T11:34:53.554Z,34.60
2018-03-22T11:35:53.539Z,34.40
2018-03-22T11:36:53.507Z,33.20
2018-03-22T11:37:53.484Z,33.40
2018-03-22T11:38:53.468Z,32.40
2018-03-22T11:39:53.442Z,34.30
2018-03-22T11:40:53.419Z,34.60
2018-03-22T11:41:53.396Z,33.90
2018-03-22T11:42:53.379Z,33.60
2018-03-22T11:43:53.353Z,33.50
2018-03-22T11:44:53.331Z,31.90
2018-03-22T11:45:53.314Z,31.00
2018-03-22T11:46:53.294Z,34.80
2018-03-22T11:47:53.268Z,32.50
2018-03-22T11:48:53.244Z,30.50
2018-03-22T11:49:53.225Z,31.10
2018-03-22T11:50:53.242Z,30.40
2018-03-22T11:51:53.179Z,31.70
2018-03-22T11:52:53.162Z,30.40
2018-03-22T11:53:53.162Z,30.00
2018-03-22T11:54:53.114Z,30.00
2018-03-22T11:55:53.093Z,30.80
2018-03-22T11:56:53.069Z,32.40
2018-03-22T11:57:53.054Z,31.20
2018-03-22T11:58:53.034Z,29.50
2018-03-22T11:59:53.008Z,29.70
2018-03-22T12:00:52.987Z,32.30
2018-03-22T12:01:52.984Z,34.00
2018-03-22T12:02:52.946Z,32.00
2018-03-22T12:03:52.920Z,34.20
2018-03-22T12:04:52.904Z,31.70
2018-03-22T12:05:52.880Z,32.40
2018-03-22T12:06:52.856Z,33.10
2018-03-22T12:07:52.833Z,33.50
2018-03-22T12:08:52.820Z,33.30
2018-03-22T12:09:52.794Z,32.10
2018-03-22T12:10:52.766Z,33.80
2018-03-22T12:11:52.748Z,32.80
2018-03-22T12:12:52.726Z,33.40
2018-03-22T12:13:52.702Z,33.40
2018-03-22T12:14:52.691Z,33.90
2018-03-22T12:15:52.659Z,36.20
2018-03-22T12:16:52.640Z,33.60
2018-03-22T12:17:52.614Z,34.00
2018-03-22T12:18:52.595Z,33.50
2018-03-22T12:19:52.590Z,35.00
2018-03-22T12:20:52.550Z,35.60
2018-03-22T12:21:52.530Z,37.10
2018-03-22T12:22:52.511Z,36.00
2018-03-22T12:23:52.493Z,37.80
2018-03-22T12:24:52.476Z,36.90
2018-03-22T12:25:52.447Z,34.30
2018-03-22T12:26:52.425Z,36.20
2018-03-22T12:27:52.404Z,39.70
2018-03-22T12:28:52.383Z,36.50
2018-03-22T12:29:52.357Z,38.70
2018-03-22T12:30:52.337Z,37.00
2018-03-22T12:31:52.315Z,36.00
2018-03-22T12:32:52.294Z,38.00
2018-03-22T12:33:52.281Z,37.00
2018-03-22T12:34:52.259Z,39.50
2018-03-22T12:35:52.235Z,33.50
2018-03-22T12:36:52.211Z,33.20
2018-03-22T12:37:52.199Z,34.20
2018-03-22T12:38:52.165Z,29.70
2018-03-22T12:39:52.141Z,33.30
2018-03-22T12:40:52.128Z,30.90
2018-03-22T12:41:52.103Z,30.30
2018-03-22T12:42:52.079Z,31.10
2018-03-22T12:43:52.063Z,30.50
2018-03-22T12:44:52.049Z,30.60
2018-03-22T12:45:52.016Z,29.80
2018-03-22T12:46:52.015Z,28.30
2018-03-22T12:47:51.988Z,25.20
2018-03-22T12:48:51.952Z,28.50
2018-03-22T12:49:51.936Z,25.80
2018-03-22T12:50:51.913Z,27.30
2018-03-22T12:51:51.892Z,25.00